Time;durP1;ratioP1;P1;durP2;ratioP2;P2;SDS_P1;SDS_P2;PMS_P1;PMS_P2;Temp;Humidity;BMP_temperature;BMP_pressure;BME280_temperature;BME280_humidity;BME280_pressure;Samples;Min_cycle;Max_cycle;Signal;HPM_P1;HPM_P2
2022/02/13 00:02:07;;;;;;;3.00;2.70;;;;;;;0.73;81.34;101379.81;5043586;28;20044;-83
2022/02/13 00:04:34;;;;;;;6.65;2.78;;;;;;;0.77;81.33;101371.38;5063396;28;20391;-84
2022/02/13 00:07:01;;;;;;;3.53;3.22;;;;;;;0.79;80.87;101372.31;5072635;28;20163;-85
2022/02/13 00:09:30;;;;;;;3.15;2.88;;;;;;;0.80;81.04;101366.34;5044888;28;20102;-85
2022/02/13 00:12:00;;;;;;;4.53;2.55;;;;;;;0.83;80.56;101368.19;5074828;28;20081;-85
2022/02/13 00:14:28;;;;;;;5.32;2.65;;;;;;;0.92;80.34;101368.56;5053044;28;20052;-85
2022/02/13 00:16:55;;;;;;;7.70;4.40;;;;;;;0.93;80.11;101352.28;5057115;28;20051;-85
2022/02/13 00:19:23;;;;;;;3.67;3.10;;;;;;;0.94;79.85;101355.72;5061974;28;20573;-84
2022/02/13 00:21:49;;;;;;;4.63;2.70;;;;;;;0.94;79.72;101356.63;5049665;28;20061;-84
2022/02/13 00:24:25;;;;;;;4.03;2.78;;;;;;;0.94;79.45;101351.47;5072838;28;20051;-86
2022/02/13 00:26:52;;;;;;;3.45;3.15;;;;;;;0.95;79.31;101340.34;5057295;28;20044;-84
2022/02/13 00:29:18;;;;;;;4.18;3.13;;;;;;;0.96;79.19;101334.34;5054998;28;20791;-84
2022/02/13 00:31:48;;;;;;;4.50;3.35;;;;;;;0.95;79.41;101327.47;5059262;28;20132;-83
2022/02/13 00:34:15;;;;;;;3.92;3.05;;;;;;;1.04;78.46;101324.34;5054277;28;20059;-83
2022/02/13 00:36:41;;;;;;;7.53;2.97;;;;;;;1.10;78.12;101321.16;5080157;27;20044;-85
2022/02/13 00:39:08;;;;;;;5.38;2.60;;;;;;;1.06;77.92;101316.72;5077254;28;20049;-85
2022/02/13 00:41:35;;;;;;;3.80;2.15;;;;;;;0.98;78.65;101314.69;5067790;28;20048;-84
2022/02/13 00:44:02;;;;;;;7.72;2.65;;;;;;;0.93;78.74;101313.63;5066029;28;20052;-86
2022/02/13 00:46:32;;;;;;;3.22;2.50;;;;;;;0.91;78.74;101310.09;5068752;28;20048;-85
2022/02/13 00:49:00;;;;;;;5.53;3.03;;;;;;;0.98;77.87;101312.09;5067059;28;20114;-85
2022/02/13 00:51:27;;;;;;;5.43;2.67;;;;;;;0.94;78.09;101305.06;5048990;28;20071;-84
2022/02/13 00:53:53;;;;;;;4.35;2.47;;;;;;;0.91;78.27;101307.53;5045518;28;20055;-84
2022/02/13 00:56:26;;;;;;;4.93;2.60;;;;;;;0.95;77.94;101303.34;5053980;28;20178;-86
2022/02/13 00:58:55;;;;;;;3.67;2.53;;;;;;;0.95;78.20;101306.84;5066793;28;20059;-86
2022/02/13 01:01:28;;;;;;;5.93;2.85;;;;;;;0.92;77.96;101301.53;5079728;28;20737;-86
2022/02/13 01:04:01;;;;;;;6.28;2.65;;;;;;;0.85;78.11;101296.97;5080823;28;20059;-85
2022/02/13 01:06:37;;;;;;;5.93;2.78;;;;;;;0.89;77.97;101292.81;5064782;28;20040;-86
2022/02/13 01:09:04;;;;;;;4.97;2.30;;;;;;;0.90;78.42;101299.72;5084410;28;20164;-86
2022/02/13 01:11:36;;;;;;;4.30;2.55;;;;;;;0.89;78.23;101293.69;5076985;28;20041;-86
2022/02/13 01:14:06;;;;;;;4.82;2.88;;;;;;;0.85;77.88;101283.19;5080520;28;20044;-86
2022/02/13 01:16:36;;;;;;;4.68;2.28;;;;;;;0.81;78.46;101288.22;5068696;28;20034;-86
2022/02/13 01:19:05;;;;;;;6.07;3.13;;;;;;;0.80;78.28;101288.16;5062254;28;20377;-86
2022/02/13 01:21:40;;;;;;;5.63;2.65;;;;;;;0.77;78.71;101286.34;5084330;28;20055;-85
2022/02/13 01:24:10;;;;;;;4.30;2.38;;;;;;;0.81;78.42;101285.63;5072265;28;20770;-86
2022/02/13 01:26:45;;;;;;;7.22;3.58;;;;;;;0.79;77.94;101284.69;5080632;28;20586;-87
2022/02/13 01:29:15;;;;;;;8.75;3.42;;;;;;;0.75;78.25;101272.50;5063195;28;20135;-86
2022/02/13 01:31:46;;;;;;;6.60;2.25;;;;;;;0.76;78.03;101263.09;5062515;28;20044;-86
2022/02/13 01:34:19;;;;;;;6.45;3.10;;;;;;;0.79;78.19;101256.34;5084531;28;20367;-86
2022/02/13 01:37:01;;;;;;;7.80;3.00;;;;;;;0.77;77.73;101255.41;5063924;28;20108;-86
2022/02/13 01:39:35;;;;;;;5.07;2.38;;;;;;;0.74;77.95;101254.41;5073291;28;20052;-85
2022/02/13 01:42:04;;;;;;;4.30;2.83;;;;;;;0.65;78.20;101248.06;5083566;28;20144;-86
2022/02/13 01:44:33;;;;;;;5.55;2.67;;;;;;;0.60;78.49;101257.28;5076560;28;20075;-86
2022/02/13 01:47:03;;;;;;;4.63;2.67;;;;;;;0.64;78.40;101259.19;5061892;28;20292;-86
2022/02/13 01:49:37;;;;;;;5.53;2.83;;;;;;;0.69;77.67;101261.06;5072181;28;20126;-86
2022/02/13 01:52:07;;;;;;;5.55;2.75;;;;;;;0.62;78.00;101247.91;5062906;28;20172;-86
2022/02/13 01:54:36;;;;;;;5.00;2.92;;;;;;;0.64;77.98;101245.44;5057142;28;20048;-86
2022/02/13 01:57:07;;;;;;;2.28;2.08;;;;;;;0.64;77.77;101250.59;5082958;28;20074;-86
2022/02/13 01:59:35;;;;;;;4.25;2.50;;;;;;;0.58;77.55;101240.88;5060508;28;20051;-86
2022/02/13 02:02:08;;;;;;;7.10;2.83;;;;;;;0.52;77.90;101242.31;5063099;28;20429;-86
2022/02/13 02:04:38;;;;;;;3.67;2.83;;;;;;;0.48;78.24;101228.44;5053174;28;20048;-86
2022/02/13 02:07:06;;;;;;;3.35;2.70;;;;;;;0.47;78.02;101230.13;5077541;28;20051;-85
2022/02/13 02:09:35;;;;;;;8.25;3.05;;;;;;;0.42;78.58;101221.34;5058228;28;20047;-85
2022/02/13 02:12:08;;;;;;;7.43;3.65;;;;;;;0.43;78.74;101228.25;5061795;28;20048;-86
2022/02/13 02:14:37;;;;;;;4.65;3.35;;;;;;;0.41;78.25;101226.44;5064736;28;20155;-85
2022/02/13 02:17:07;;;;;;;3.47;2.78;;;;;;;0.38;78.71;101227.19;5077541;28;20063;-86
2022/02/13 02:19:46;;;;;;;30.38;14.50;;;;;;;0.31;78.76;101228.63;5098354;27;20182;-85
2022/02/13 02:22:24;;;;;;;5.78;3.55;;;;;;;0.28;79.17;101220.75;5066161;28;20070;-85
2022/02/13 02:24:51;;;;;;;3.45;2.83;;;;;;;0.30;79.29;101214.00;5063562;28;20041;-86
2022/02/13 02:27:24;;;;;;;2.83;2.58;;;;;;;0.29;79.03;101212.22;5082488;28;20072;-86
2022/02/13 02:29:57;;;;;;;6.00;2.33;;;;;;;0.29;78.90;101199.34;5080606;28;20142;-86
2022/02/13 02:32:29;;;;;;;5.13;2.72;;;;;;;0.25;79.17;101194.88;5072683;28;20926;-86
2022/02/13 02:34:58;;;;;;;4.95;3.70;;;;;;;0.20;78.93;101209.25;5069283;28;20047;-87
2022/02/13 02:37:26;;;;;;;4.70;2.80;;;;;;;0.13;79.40;101218.44;5076016;28;20044;-86
2022/02/13 02:39:56;;;;;;;6.13;3.33;;;;;;;0.06;79.75;101218.09;5071846;28;20052;-85
2022/02/13 02:42:23;;;;;;;7.88;3.10;;;;;;;0.05;79.41;101212.03;5064103;28;20066;-86
2022/02/13 02:44:51;;;;;;;8.65;3.35;;;;;;;0.04;79.83;101217.13;5076679;28;20055;-86
2022/02/13 02:47:21;;;;;;;4.45;3.05;;;;;;;0.04;80.08;101202.59;5079545;28;20070;-86
2022/02/13 02:49:48;;;;;;;5.35;3.72;;;;;;;0.04;79.11;101210.31;5062017;28;20045;-85
2022/02/13 02:52:18;;;;;;;6.20;2.72;;;;;;;0.08;79.34;101198.44;5076893;28;20036;-87
2022/02/13 02:54:51;;;;;;;3.55;2.88;;;;;;;0.11;79.14;101193.44;5058338;28;20538;-86
2022/02/13 02:57:17;;;;;;;7.03;3.47;;;;;;;0.11;78.91;101196.00;5075104;28;20044;-86
2022/02/13 02:59:47;;;;;;;3.90;3.17;;;;;;;0.09;78.90;101185.66;5077117;28;20056;-85
2022/02/13 03:02:14;;;;;;;8.07;3.47;;;;;;;0.09;79.25;101193.38;5071825;28;20059;-85
2022/02/13 03:04:46;;;;;;;4.10;2.88;;;;;;;0.05;78.86;101196.59;5073991;28;20106;-87
2022/02/13 03:07:13;;;;;;;5.95;2.80;;;;;;;0.05;78.99;101188.88;5061163;28;20052;-85
2022/02/13 03:09:43;;;;;;;5.70;3.20;;;;;;;0.05;78.70;101177.72;5071148;28;20062;-85
2022/02/13 03:12:12;;;;;;;5.30;3.45;;;;;;;0.07;78.82;101165.81;5066671;28;20058;-85
2022/02/13 03:14:39;;;;;;;4.57;3.03;;;;;;;0.11;78.00;101170.25;5054141;28;20075;-85
2022/02/13 03:17:06;;;;;;;6.10;2.33;;;;;;;0.16;77.98;101158.47;5061004;28;20044;-87
2022/02/13 03:19:38;;;;;;;3.08;2.50;;;;;;;0.18;78.13;101161.09;5078489;28;20048;-86
2022/02/13 03:22:07;;;;;;;8.00;3.38;;;;;;;0.23;77.88;101157.03;5059451;28;20040;-85
2022/02/13 03:24:36;;;;;;;3.78;2.85;;;;;;;0.20;77.98;101147.47;5065620;28;20159;-85
2022/02/13 03:27:03;;;;;;;4.75;2.63;;;;;;;0.25;77.61;101152.78;5048912;28;20512;-87
2022/02/13 03:29:30;;;;;;;7.75;3.58;;;;;;;0.27;77.34;101138.28;5074765;28;20044;-86
2022/02/13 03:31:57;;;;;;;4.25;2.38;;;;;;;0.35;76.82;101131.75;5080687;28;20090;-86
2022/02/13 03:34:23;;;;;;;8.32;3.58;;;;;;;0.37;76.93;101117.25;5073251;28;20114;-86
2022/02/13 03:36:51;;;;;;;7.95;2.90;;;;;;;0.37;76.51;101114.69;5067925;28;20094;-86
2022/02/13 03:39:19;;;;;;;5.22;2.75;;;;;;;0.36;76.39;101114.63;5059065;28;20036;-85
2022/02/13 03:41:46;;;;;;;5.65;2.58;;;;;;;0.30;76.41;101116.13;5069211;28;20103;-86
2022/02/13 03:44:15;;;;;;;3.53;2.42;;;;;;;0.26;76.50;101123.66;5059549;28;20041;-86
2022/02/13 03:46:41;;;;;;;7.30;3.15;;;;;;;0.22;76.44;101134.66;5065828;28;20051;-85
2022/02/13 03:49:08;;;;;;;5.65;2.35;;;;;;;0.16;76.83;101125.84;5054750;28;20032;-86
2022/02/13 03:51:35;;;;;;;4.25;3.05;;;;;;;0.12;76.69;101110.25;5073217;28;20052;-86
2022/02/13 03:54:01;;;;;;;7.80;3.03;;;;;;;0.01;77.22;101114.94;5072480;28;20058;-86
2022/02/13 03:56:28;;;;;;;5.28;2.60;;;;;;;-0.08;77.28;101115.44;5054550;28;20697;-85
2022/02/13 03:58:55;;;;;;;4.30;3.15;;;;;;;-0.12;nan;101118.69;5073183;28;20036;-85
2022/02/13 04:01:21;;;;;;;5.00;3.00;;;;;;;-0.20;78.13;101115.78;5068418;28;20316;-86
2022/02/13 04:03:48;;;;;;;6.38;3.00;;;;;;;-0.29;78.45;101106.81;5058874;28;20296;-86
2022/02/13 04:06:14;;;;;;;3.42;3.13;;;;;;;-0.36;78.66;101109.13;5050993;28;20059;-86
2022/02/13 04:08:41;;;;;;;6.85;2.97;;;;;;;-0.32;79.05;101106.69;5057541;28;21130;-86
2022/02/13 04:11:08;;;;;;;5.25;2.50;;;;;;;-0.24;78.98;101100.16;5079043;28;20052;-87
2022/02/13 04:13:35;;;;;;;6.63;3.28;;;;;;;-0.11;78.29;101091.28;5066471;28;20543;-87
2022/02/13 04:16:01;;;;;;;3.05;2.28;;;;;;;-0.07;77.82;101091.44;5073283;28;20059;-86
2022/02/13 04:18:28;;;;;;;6.47;3.70;;;;;;;-0.01;77.76;101088.25;5056847;28;20072;-85
2022/02/13 04:20:54;;;;;;;7.68;2.88;;;;;;;-0.06;77.41;101087.19;5072990;28;20038;-85
2022/02/13 04:23:21;;;;;;;7.68;3.22;;;;;;;-0.06;78.06;101074.31;5076999;28;20586;-86
2022/02/13 04:25:47;;;;;;;3.58;3.28;;;;;;;-0.11;78.08;101078.41;5066736;28;20051;-86
2022/02/13 04:28:14;;;;;;;6.47;3.13;;;;;;;-0.14;78.49;101060.25;5074476;28;20044;-86
2022/02/13 04:30:41;;;;;;;5.88;3.03;;;;;;;-0.20;78.39;101061.75;5078867;27;20044;-86
2022/02/13 04:33:08;;;;;;;4.78;2.78;;;;;;;-0.26;78.94;101053.78;5055508;28;20048;-86
2022/02/13 04:35:36;;;;;;;3.42;2.80;;;;;;;-0.36;79.26;101047.38;5061728;28;20097;-85
2022/02/13 04:38:03;;;;;;;5.78;3.38;;;;;;;-0.44;79.88;101050.44;5068825;28;20052;-85
2022/02/13 04:40:30;;;;;;;5.25;3.60;;;;;;;-0.47;80.34;101040.94;5062649;28;20100;-85
2022/02/13 04:42:56;;;;;;;4.35;3.08;;;;;;;-0.52;80.23;101051.00;5056304;28;20048;-86
2022/02/13 04:45:23;;;;;;;4.35;3.22;;;;;;;-0.60;80.53;101047.25;5053269;28;20063;-86
2022/02/13 04:47:49;;;;;;;5.75;3.47;;;;;;;-0.61;81.19;101057.44;5060995;28;20052;-86
2022/02/13 04:50:21;;;;;;;4.03;2.88;;;;;;;-0.66;81.56;101057.25;5054342;28;20052;-85
2022/02/13 04:52:53;;;;;;;6.70;3.45;;;;;;;-0.70;81.71;101058.81;5056282;28;20932;-86
2022/02/13 04:55:22;;;;;;;7.50;3.75;;;;;;;-0.73;82.60;101045.81;5062243;28;20375;-86
2022/02/13 04:57:50;;;;;;;8.15;5.00;;;;;;;-0.73;82.78;101052.63;5058223;28;20056;-85
2022/02/13 05:00:18;;;;;;;5.38;3.63;;;;;;;-0.71;83.17;101051.03;5077347;28;20067;-85
2022/02/13 05:02:46;;;;;;;6.10;4.10;;;;;;;-0.68;82.87;101048.56;5074477;28;20044;-85
2022/02/13 05:05:13;;;;;;;4.88;4.07;;;;;;;-0.72;82.67;101042.44;5081820;27;20055;-86
2022/02/13 05:07:40;;;;;;;6.07;3.05;;;;;;;-0.76;83.36;101035.38;5074065;28;20044;-86
2022/02/13 05:10:09;;;;;;;6.57;4.18;;;;;;;-0.81;83.39;101036.00;5072322;28;20097;-86
2022/02/13 05:12:36;;;;;;;4.47;3.13;;;;;;;-0.82;83.66;101040.28;5056174;28;20328;-85
2022/02/13 05:15:04;;;;;;;7.03;3.53;;;;;;;-0.90;84.00;101034.81;5073680;28;20076;-85
2022/02/13 05:17:37;;;;;;;7.53;3.63;;;;;;;-0.97;83.64;101032.78;5069377;28;20100;-86
2022/02/13 05:20:06;;;;;;;7.10;4.10;;;;;;;-1.01;84.88;101033.44;5054598;28;20048;-87
2022/02/13 05:22:33;;;;;;;7.03;4.47;;;;;;;-1.04;85.06;101033.34;5069928;28;20048;-86
2022/02/13 05:25:00;;;;;;;5.43;3.70;;;;;;;-1.04;84.99;101031.63;5058667;28;20079;-85
2022/02/13 05:27:26;;;;;;;6.32;4.15;;;;;;;-1.02;85.93;101017.16;5073877;28;20048;-85
2022/02/13 05:29:53;;;;;;;11.43;5.53;;;;;;;-1.03;85.43;101014.50;5066321;28;20303;-85
2022/02/13 05:32:19;;;;;;;6.45;4.30;;;;;;;-1.03;85.92;101004.22;5070455;28;20054;-86
2022/02/13 05:34:46;;;;;;;7.53;3.58;;;;;;;-1.02;84.97;101006.88;5075229;28;20293;-86
2022/02/13 05:37:13;;;;;;;6.57;3.40;;;;;;;-1.01;85.08;100993.19;5061169;28;21377;-86
2022/02/13 05:39:42;;;;;;;4.28;3.38;;;;;;;-1.00;85.12;100994.09;5066165;28;20043;-86
2022/02/13 05:42:10;;;;;;;6.75;3.53;;;;;;;-0.98;84.61;100987.31;5060994;28;20106;-86
2022/02/13 05:44:36;;;;;;;4.18;3.10;;;;;;;-1.00;84.71;100982.13;5053860;28;20052;-86
2022/02/13 05:47:03;;;;;;;5.18;3.83;;;;;;;-1.02;85.53;100976.06;5070881;28;20458;-86
2022/02/13 05:49:30;;;;;;;6.97;3.95;;;;;;;-0.98;85.05;100976.19;5069461;28;20128;-86
2022/02/13 05:51:56;;;;;;;6.03;4.28;;;;;;;-0.97;85.01;100978.81;5075570;28;20087;-86
2022/02/13 05:54:23;;;;;;;6.15;4.03;;;;;;;-1.00;84.79;100979.56;5070961;28;20127;-86
2022/02/13 05:56:50;;;;;;;7.95;3.40;;;;;;;-1.03;84.88;100968.25;5085400;27;20055;-86
2022/02/13 05:59:17;;;;;;;8.25;4.53;;;;;;;-1.08;85.12;100970.66;5056945;28;20040;-86
2022/02/13 06:01:43;;;;;;;4.55;3.72;;;;;;;-1.10;85.18;100961.09;5051999;28;20028;-86
2022/02/13 06:04:10;;;;;;;5.10;3.92;;;;;;;-1.07;86.07;100976.66;5067464;28;20045;-85
2022/02/13 06:06:36;;;;;;;8.48;3.88;;;;;;;-1.10;85.74;100971.38;5057701;28;20044;-85
2022/02/13 06:09:03;;;;;;;8.02;3.63;;;;;;;-1.11;85.79;100979.91;5072708;28;20040;-85
2022/02/13 06:11:30;;;;;;;5.38;3.63;;;;;;;-1.15;85.14;100984.00;5072100;28;20040;-86
2022/02/13 06:13:57;;;;;;;9.57;3.55;;;;;;;-1.20;85.29;100990.63;5054133;28;20105;-87
2022/02/13 06:16:24;;;;;;;4.70;3.92;;;;;;;-1.19;86.59;100984.69;5058419;28;20138;-86
2022/02/13 06:18:54;;;;;;;3.92;3.35;;;;;;;-1.18;86.62;100984.75;5062627;28;20040;-86
2022/02/13 06:21:45;;;;;;;7.28;4.13;;;;;;;-1.20;86.15;100991.53;5033530;28;20049;-86
2022/02/13 06:24:13;;;;;;;7.47;4.32;;;;;;;-1.21;86.70;100984.63;5069899;28;20055;-86
2022/02/13 06:26:41;;;;;;;5.47;4.03;;;;;;;-1.23;86.68;100986.25;5077135;28;20078;-87
2022/02/13 06:29:08;;;;;;;6.80;4.25;;;;;;;-1.25;86.61;100995.59;5055951;28;20048;-84
2022/02/13 06:31:37;;;;;;;8.25;4.13;;;;;;;-1.24;87.08;100996.47;5056795;28;20052;-86
2022/02/13 06:34:13;;;;;;;5.72;3.97;;;;;;;-1.25;86.36;100999.84;5038703;28;20047;-86
2022/02/13 06:36:40;;;;;;;7.13;3.63;;;;;;;-1.23;86.27;100996.53;5051109;28;20198;-87
2022/02/13 06:39:12;;;;;;;6.15;3.70;;;;;;;-1.19;85.73;101005.25;5064393;28;20105;-86
2022/02/13 06:41:41;;;;;;;5.80;3.88;;;;;;;-1.14;85.75;101001.19;5071619;28;20041;-85
2022/02/13 06:44:10;;;;;;;8.48;3.97;;;;;;;-1.06;84.93;100999.84;5073607;28;21630;-82
2022/02/13 06:46:44;;;;;;;7.63;4.20;;;;;;;-1.02;84.42;100996.63;5057471;28;20052;-87
2022/02/13 06:49:11;;;;;;;4.65;3.60;;;;;;;-1.00;84.32;100996.66;5051752;28;20850;-83
2022/02/13 06:51:38;;;;;;;4.70;3.50;;;;;;;-1.01;84.10;100995.78;5059641;28;20134;-86
2022/02/13 06:54:04;;;;;;;8.73;3.53;;;;;;;-1.01;84.22;101000.03;5050711;28;20059;-84
2022/02/13 06:56:32;;;;;;;5.20;3.58;;;;;;;-1.03;84.48;101002.56;5072570;28;20123;-84
2022/02/13 06:59:00;;;;;;;5.68;3.65;;;;;;;-1.04;83.70;101003.34;5055815;28;20045;-85
2022/02/13 07:01:27;;;;;;;5.38;3.55;;;;;;;-1.06;84.29;100998.97;5076949;28;20139;-86
2022/02/13 07:03:53;;;;;;;5.40;3.63;;;;;;;-1.05;84.30;101009.31;5052983;28;20048;-86
2022/02/13 07:06:20;;;;;;;4.85;3.60;;;;;;;-1.05;84.13;101005.88;5057328;28;20143;-84
2022/02/13 07:08:47;;;;;;;6.43;3.60;;;;;;;-1.06;84.07;101001.53;5071966;28;20044;-86
2022/02/13 07:11:20;;;;;;;7.07;4.40;;;;;;;-1.06;84.70;101002.41;5059335;28;20457;-85
2022/02/13 07:13:47;;;;;;;6.70;3.75;;;;;;;-1.05;84.35;100998.16;5083298;27;20149;-87
2022/02/13 07:16:14;;;;;;;8.63;3.42;;;;;;;-1.02;83.95;101008.56;5061159;28;20322;-85
2022/02/13 07:18:40;;;;;;;7.68;3.90;;;;;;;-0.96;83.78;101000.25;5059832;28;20044;-85
2022/02/13 07:21:07;;;;;;;9.00;5.93;;;;;;;-0.91;83.63;101007.34;5061770;28;20048;-84
2022/02/13 07:23:34;;;;;;;7.93;4.30;;;;;;;-0.86;83.06;101010.09;5079953;28;20029;-83
2022/02/13 07:26:00;;;;;;;5.20;4.05;;;;;;;-0.80;82.38;101010.38;5069387;28;20076;-84
2022/02/13 07:31:11;;;;;;;11.10;3.78;;;;;;;-0.68;80.87;101000.63;5073377;28;20060;-87
2022/02/13 07:33:38;;;;;;;5.78;3.90;;;;;;;-0.57;80.25;101007.91;5070795;28;20482;-86
2022/02/13 07:36:05;;;;;;;5.82;4.07;;;;;;;-0.46;79.39;101004.06;5088201;27;20059;-84
2022/02/13 07:38:36;;;;;;;9.20;4.50;;;;;;;-0.35;79.44;101005.41;5049401;28;20608;-85
2022/02/13 07:41:06;;;;;;;7.63;4.85;;;;;;;-0.30;78.61;100997.00;5076345;28;20052;-84
2022/02/13 07:43:34;;;;;;;10.43;4.70;;;;;;;-0.25;78.32;101000.63;5079081;28;20044;-85
2022/02/13 07:46:07;;;;;;;7.78;4.10;;;;;;;-0.21;78.57;100999.94;5067720;28;20091;-83
2022/02/13 07:48:37;;;;;;;7.32;4.30;;;;;;;-0.16;78.60;101001.00;5073423;28;20494;-84
2022/02/13 07:51:09;;;;;;;6.13;4.38;;;;;;;-0.08;77.31;100998.75;5046602;28;20617;-85
2022/02/13 07:53:37;;;;;;;10.07;5.40;;;;;;;-0.06;77.62;101000.56;5070909;28;20052;-86
2022/02/13 07:56:07;;;;;;;7.15;4.63;;;;;;;0.01;77.43;100998.22;5068423;28;20059;-86
2022/02/13 07:58:36;;;;;;;8.60;5.40;;;;;;;0.03;77.14;100999.16;5054542;28;20139;-85
2022/02/13 08:01:06;;;;;;;12.68;4.38;;;;;;;0.10;77.07;101001.16;5054129;28;20062;-85
2022/02/13 08:03:37;;;;;;;8.23;4.35;;;;;;;0.14;76.54;100993.63;5044769;28;20048;-85
2022/02/13 08:06:10;;;;;;;9.20;4.68;;;;;;;0.23;75.83;101002.53;5073234;28;20052;-83
2022/02/13 08:08:38;;;;;;;6.75;4.57;;;;;;;0.26;76.08;101003.53;5062332;28;20063;-87
2022/02/13 08:11:07;;;;;;;7.18;4.35;;;;;;;0.29;76.05;100992.47;5053032;28;20046;-85
2022/02/13 08:13:35;;;;;;;6.05;4.15;;;;;;;0.33;76.23;100995.22;5062384;28;20162;-85
2022/02/13 08:16:04;;;;;;;12.60;5.07;;;;;;;0.41;75.44;100990.34;5057738;28;20044;-86
2022/02/13 08:18:31;;;;;;;10.02;3.92;;;;;;;0.50;75.28;100997.56;5078241;28;20044;-87
2022/02/13 08:21:03;;;;;;;7.40;4.60;;;;;;;0.55;75.25;100990.88;5072683;28;20032;-86
2022/02/13 08:23:32;;;;;;;10.35;5.32;;;;;;;0.64;74.87;100991.22;5071725;28;20048;-84
2022/02/13 08:25:59;;;;;;;9.70;5.40;;;;;;;0.73;73.92;100995.84;5079516;28;20078;-82
2022/02/13 08:28:26;;;;;;;8.68;4.60;;;;;;;0.81;72.93;100993.53;5063097;28;20186;-84
2022/02/13 08:30:57;;;;;;;11.63;5.38;;;;;;;0.92;72.46;100987.06;5072439;28;22672;-86
2022/02/13 08:33:24;;;;;;;7.38;4.53;;;;;;;1.04;72.03;100980.59;5063930;28;20052;-84
2022/02/13 08:35:50;;;;;;;12.35;6.10;;;;;;;1.13;70.54;100981.81;5039461;28;20048;-87
2022/02/13 08:38:17;;;;;;;6.28;4.97;;;;;;;1.26;70.16;100977.91;5080555;28;20056;-85
2022/02/13 08:40:46;;;;;;;12.98;6.30;;;;;;;1.34;69.07;100969.56;5077085;28;21329;-85
2022/02/13 08:43:12;;;;;;;8.15;4.72;;;;;;;1.47;67.76;100967.47;5045897;28;20050;-86
2022/02/13 08:45:40;;;;;;;14.30;5.95;;;;;;;1.52;68.07;100966.72;5070350;28;20051;-85
2022/02/13 08:48:14;;;;;;;6.75;4.90;;;;;;;1.57;67.04;100963.47;5074405;28;20584;-85
2022/02/13 08:50:41;;;;;;;7.75;5.47;;;;;;;1.59;67.15;100954.09;5079283;28;20549;-84
2022/02/13 08:53:08;;;;;;;9.75;5.45;;;;;;;1.64;67.15;100946.47;5075947;28;20699;-86
2022/02/13 08:55:35;;;;;;;9.70;5.13;;;;;;;1.64;67.30;100946.47;5075907;28;20051;-84
2022/02/13 08:58:01;;;;;;;8.85;5.65;;;;;;;1.67;66.82;100940.53;5075064;28;20054;-83
2022/02/13 09:00:28;;;;;;;8.82;5.53;;;;;;;1.68;67.47;100924.22;5057865;28;20068;-85
2022/02/13 09:02:58;;;;;;;8.73;4.90;;;;;;;1.70;66.46;100928.63;5051834;28;20052;-86
2022/02/13 09:05:29;;;;;;;5.38;4.15;;;;;;;1.76;66.40;100930.50;5074235;28;20108;-84
2022/02/13 09:07:56;;;;;;;12.13;5.05;;;;;;;1.81;66.41;100936.69;5076090;28;20109;-87
2022/02/13 09:10:25;;;;;;;10.52;4.40;;;;;;;1.87;66.44;100916.22;5045301;28;20044;-84
2022/02/13 09:12:52;;;;;;;10.02;4.95;;;;;;;1.88;65.98;100915.41;5059128;28;20055;-84
2022/02/13 09:15:20;;;;;;;5.82;4.32;;;;;;;1.96;66.14;100915.66;5061218;28;20083;-86
2022/02/13 09:17:47;;;;;;;7.10;4.45;;;;;;;2.00;65.57;100911.47;5062624;28;20048;-87
2022/02/13 09:20:14;;;;;;;10.00;4.72;;;;;;;2.03;65.60;100909.81;5067366;28;20052;-86
2022/02/13 09:22:41;;;;;;;7.57;4.65;;;;;;;2.07;65.44;100906.50;5055483;28;20110;-87
2022/02/13 09:25:14;;;;;;;12.02;4.90;;;;;;;2.11;64.44;100908.38;5057935;28;20045;-86
2022/02/13 09:27:42;;;;;;;6.50;3.65;;;;;;;2.21;64.83;100899.16;5059929;28;20113;-87
2022/02/13 09:30:09;;;;;;;6.65;4.20;;;;;;;2.26;64.66;100895.00;5087050;27;20052;-87
2022/02/13 09:32:40;;;;;;;6.50;4.03;;;;;;;2.36;63.77;100883.25;5063867;28;20048;-86
2022/02/13 09:35:11;;;;;;;4.25;3.85;;;;;;;2.46;62.59;100882.66;5058161;28;20403;-85
2022/02/13 09:37:38;;;;;;;6.13;4.53;;;;;;;2.54;63.23;100879.41;5057176;28;20040;-86
2022/02/13 09:40:08;;;;;;;6.93;3.55;;;;;;;2.62;62.52;100867.56;5056337;28;20048;-84
2022/02/13 09:42:35;;;;;;;8.57;4.38;;;;;;;2.72;62.13;100874.72;5055578;28;20051;-86
2022/02/13 09:45:05;;;;;;;7.05;5.05;;;;;;;2.76;62.92;100863.63;5067809;28;20083;-85
2022/02/13 09:47:34;;;;;;;6.03;4.40;;;;;;;2.80;63.02;100862.00;5062952;28;20124;-84
2022/02/13 09:50:01;;;;;;;7.80;4.75;;;;;;;2.83;63.34;100854.34;5062756;28;20051;-84
2022/02/13 09:52:32;;;;;;;9.50;4.38;;;;;;;2.84;62.67;100845.72;5052097;28;20047;-83
2022/02/13 09:55:08;;;;;;;4.82;4.32;;;;;;;2.88;62.75;100855.34;5058089;28;20039;-85
2022/02/13 10:00:19;;;;;;;7.28;4.78;;;;;;;2.94;62.98;100878.75;5051490;28;20040;-87
2022/02/13 10:02:46;;;;;;;9.20;5.88;;;;;;;3.02;62.74;100867.75;5067239;28;20051;-85
2022/02/13 10:05:21;;;;;;;6.15;4.50;;;;;;;3.07;62.44;100876.50;5052571;28;20055;-86
2022/02/13 10:07:52;;;;;;;5.82;3.92;;;;;;;3.15;62.21;100872.38;5044539;28;20280;-84
2022/02/13 10:10:19;;;;;;;6.25;3.70;;;;;;;3.24;62.01;100875.19;5048842;28;20040;-85
2022/02/13 10:12:48;;;;;;;6.40;3.85;;;;;;;3.31;61.26;100868.44;5063632;28;20051;-84
2022/02/13 10:15:29;;;;;;;5.47;3.58;;;;;;;3.39;60.92;100877.28;5054290;28;20075;-83
2022/02/13 10:18:06;;;;;;;6.55;3.92;;;;;;;3.54;57.96;100875.91;5057313;28;20053;-83
2022/02/13 10:20:39;;;;;;;5.68;3.65;;;;;;;3.66;58.61;100867.53;5070579;28;20233;-85
2022/02/13 10:23:11;;;;;;;6.05;3.97;;;;;;;3.77;57.87;100861.75;5067605;28;20742;-84
2022/02/13 10:25:39;;;;;;;6.85;3.97;;;;;;;3.89;57.46;100860.28;5075083;28;20041;-86
2022/02/13 10:28:17;;;;;;;3.67;3.33;;;;;;;3.98;57.23;100848.41;5052532;28;20075;-84
2022/02/13 10:30:49;;;;;;;6.90;4.05;;;;;;;4.13;56.34;100844.38;5047328;28;20055;-84
2022/02/13 10:33:34;;;;;;;9.02;3.95;;;;;;;4.26;55.99;100848.97;5063970;28;20114;-85
2022/02/13 10:36:13;;;;;;;7.00;4.00;;;;;;;4.39;56.36;100849.22;5071551;28;20047;-85
2022/02/13 10:38:42;;;;;;;6.57;4.40;;;;;;;4.55;56.35;100842.59;5055819;28;20043;-86
2022/02/13 10:41:20;;;;;;;4.80;3.72;;;;;;;4.68;55.91;100841.09;5067221;28;20044;-86
2022/02/13 10:44:06;;;;;;;6.50;3.47;;;;;;;4.83;55.63;100836.19;5045864;28;20051;-86
2022/02/13 10:46:41;;;;;;;5.38;3.95;;;;;;;4.96;53.83;100819.97;5050901;28;20097;-84
2022/02/13 10:49:11;;;;;;;6.47;4.13;;;;;;;5.04;54.56;100825.31;5064339;28;20057;-84
2022/02/13 10:51:38;;;;;;;5.18;3.47;;;;;;;5.10;53.99;100815.03;5062868;28;20045;-85
2022/02/13 10:54:05;;;;;;;5.70;3.60;;;;;;;5.18;53.43;100809.97;5070341;28;20483;-86
2022/02/13 10:56:35;;;;;;;5.10;3.88;;;;;;;5.28;54.53;100804.06;5069162;28;20048;-83
2022/02/13 10:59:03;;;;;;;5.70;3.80;;;;;;;5.38;54.57;100807.66;5068660;28;20182;-86
2022/02/13 11:01:30;;;;;;;6.28;3.78;;;;;;;5.44;52.24;100801.69;5054623;28;20565;-85
2022/02/13 11:04:03;;;;;;;4.60;3.38;;;;;;;5.50;52.33;100806.09;5045020;28;20052;-84
2022/02/13 11:06:38;;;;;;;5.38;3.25;;;;;;;5.56;51.27;100796.66;5059427;28;21179;-85
2022/02/13 11:09:25;;;;;;;4.60;3.13;;;;;;;5.61;51.78;100789.81;5053353;28;20068;-84
2022/02/13 11:11:52;;;;;;;7.63;4.25;;;;;;;5.69;50.85;100783.88;5066409;28;20044;-85
2022/02/13 11:14:36;;;;;;;3.85;2.92;;;;;;;5.72;50.56;100774.41;5051935;28;20059;-85
2022/02/13 11:17:04;;;;;;;;;;;;;;;5.77;49.64;100767.50;5051867;28;20071;-84
2022/02/13 11:19:38;;;;;;;5.10;2.58;;;;;;;5.87;48.57;100762.44;5055801;28;20440;-83
2022/02/13 11:22:05;;;;;;;;;;;;;;;5.97;48.38;100751.28;5068639;28;20040;-85
2022/02/13 11:24:36;;;;;;;3.85;2.45;;;;;;;6.14;47.23;100754.13;5070717;28;20046;-84
2022/02/13 11:27:05;;;;;;;4.28;2.78;;;;;;;6.24;47.31;100749.88;5051159;28;20062;-85
2022/02/13 11:29:56;;;;;;;4.45;2.55;;;;;;;6.36;45.59;100736.13;5060467;28;20040;-85
2022/02/13 11:32:36;;;;;;;4.88;2.78;;;;;;;6.44;45.50;100730.16;5046185;28;20055;-84
2022/02/13 11:35:09;;;;;;;3.42;2.60;;;;;;;6.53;46.32;100726.78;5061187;28;20271;-86
2022/02/13 11:37:50;;;;;;;3.13;2.50;;;;;;;6.63;46.73;100738.13;5063148;28;20142;-87
2022/02/13 11:40:35;;;;;;;5.05;4.00;;;;;;;6.77;44.94;100723.50;5063086;28;20049;-88
2022/02/13 11:43:07;;;;;;;6.07;3.40;;;;;;;6.82;46.03;100718.34;5075808;28;20049;-88
2022/02/13 11:45:51;;;;;;;5.07;3.38;;;;;;;6.82;45.62;100705.31;5080281;28;21060;-87
2022/02/13 11:48:36;;;;;;;8.48;4.03;;;;;;;6.86;45.94;100711.44;5067983;28;20117;-86